createdAt,value
2023-02-09T00:00:02.049Z,102990
2023-02-09T00:01:02.917Z,102980
2023-02-09T00:02:00.710Z,102980
2023-02-09T00:03:00.648Z,102980
2023-02-09T00:04:00.767Z,102980
2023-02-09T00:05:00.622Z,102980
2023-02-09T00:06:01.346Z,102980
2023-02-09T00:07:01.100Z,102980
2023-02-09T00:08:00.623Z,102980
2023-02-09T00:09:00.591Z,102980
2023-02-09T00:10:00.677Z,102980
2023-02-09T00:11:04.038Z,102980
2023-02-09T00:12:00.639Z,102980
2023-02-09T00:13:00.594Z,102980
2023-02-09T00:14:00.601Z,102980
2023-02-09T00:15:00.654Z,102990
2023-02-09T00:16:01.214Z,102990
2023-02-09T00:17:01.298Z,102990
2023-02-09T00:18:00.594Z,102990
2023-02-09T00:19:00.640Z,102990
2023-02-09T00:20:01.172Z,102990
2023-02-09T00:21:02.161Z,102990
2023-02-09T00:22:00.594Z,102990
2023-02-09T00:23:00.619Z,102980
2023-02-09T00:24:00.656Z,102980
2023-02-09T00:25:00.653Z,102990
2023-02-09T00:26:01.601Z,102990
2023-02-09T00:27:00.652Z,102980
2023-02-09T00:28:00.651Z,102980
2023-02-09T00:29:00.934Z,102980
2023-02-09T00:30:00.640Z,102980
2023-02-09T00:31:04.752Z,102980
2023-02-09T00:32:00.989Z,102980
2023-02-09T00:33:00.638Z,102980
2023-02-09T00:34:01.016Z,102980
2023-02-09T00:35:00.615Z,102990
2023-02-09T00:36:02.340Z,102990
2023-02-09T00:37:00.620Z,102990
2023-02-09T00:38:00.601Z,102990
2023-02-09T00:39:00.604Z,102990
2023-02-09T00:40:00.671Z,102990
2023-02-09T00:41:00.628Z,102990
2023-02-09T00:42:00.592Z,102990
2023-02-09T00:43:00.617Z,103000
2023-02-09T00:44:00.597Z,103000
2023-02-09T00:45:00.603Z,103000
2023-02-09T00:46:01.016Z,103000
2023-02-09T00:47:01.299Z,103000
2023-02-09T00:48:01.029Z,103000
2023-02-09T00:49:00.646Z,102990
2023-02-09T00:50:00.633Z,102990
2023-02-09T00:51:01.128Z,102990
2023-02-09T00:52:00.849Z,102990
2023-02-09T00:53:00.614Z,103000
2023-02-09T00:54:00.702Z,103000
2023-02-09T00:55:00.649Z,103000
2023-02-09T00:56:00.605Z,103000
2023-02-09T00:57:00.612Z,103000
2023-02-09T00:58:00.655Z,103000
2023-02-09T00:59:00.604Z,103000
2023-02-09T01:00:01.112Z,103000
2023-02-09T01:01:00.634Z,102990
2023-02-09T01:02:00.673Z,102990
2023-02-09T01:03:00.897Z,102990
2023-02-09T01:04:00.753Z,102990
2023-02-09T01:05:01.214Z,102980
2023-02-09T01:06:00.640Z,102980
2023-02-09T01:07:00.593Z,102990
2023-02-09T01:08:00.602Z,102990
2023-02-09T01:09:00.895Z,102980
2023-02-09T01:10:00.624Z,102980
2023-02-09T01:11:06.380Z,102990
2023-02-09T01:12:00.605Z,102990
2023-02-09T01:13:00.745Z,102990
2023-02-09T01:14:00.649Z,102990
2023-02-09T01:15:00.687Z,102990
2023-02-09T01:16:04.290Z,102990
2023-02-09T01:17:00.663Z,102990
2023-02-09T01:18:00.618Z,102990
2023-02-09T01:19:01.392Z,102990
2023-02-09T01:20:00.697Z,102990
2023-02-09T01:21:00.645Z,102990
2023-02-09T01:22:00.779Z,102990
2023-02-09T01:23:00.632Z,102980
2023-02-09T01:24:00.598Z,102980
2023-02-09T01:25:00.638Z,102990
2023-02-09T01:26:01.398Z,102990
2023-02-09T01:27:00.955Z,102980
2023-02-09T01:28:00.650Z,102980
2023-02-09T01:29:00.609Z,102990
2023-02-09T01:30:00.594Z,102990
2023-02-09T01:31:00.730Z,102990
2023-02-09T01:32:00.716Z,102990
2023-02-09T01:33:00.594Z,102980
2023-02-09T01:34:02.155Z,102980
2023-02-09T01:35:00.635Z,102980
2023-02-09T01:36:04.019Z,102980
2023-02-09T01:37:00.649Z,102980
2023-02-09T01:38:00.611Z,102980
2023-02-09T01:39:02.586Z,102990
2023-02-09T01:40:00.766Z,102990
2023-02-09T01:41:00.619Z,102990
2023-02-09T01:42:00.649Z,102990
2023-02-09T01:43:00.608Z,102990
2023-02-09T01:44:02.508Z,102990
2023-02-09T01:45:10.564Z,102990
2023-02-09T01:46:00.678Z,102990
2023-02-09T01:47:00.604Z,102990
2023-02-09T01:48:01.477Z,102990
2023-02-09T01:49:04.102Z,102990
2023-02-09T01:50:01.729Z,102990
2023-02-09T01:51:00.622Z,102990
2023-02-09T01:52:03.127Z,102990
2023-02-09T01:53:01.477Z,102980
2023-02-09T01:54:03.614Z,102980
2023-02-09T01:55:04.163Z,102980
2023-02-09T01:56:06.130Z,102980
2023-02-09T01:57:05.157Z,102980
2023-02-09T01:58:05.059Z,102980
2023-02-09T01:59:00.629Z,102980
2023-02-09T02:00:06.851Z,102980
2023-02-09T02:01:00.929Z,102980
2023-02-09T02:02:01.523Z,102980
2023-02-09T02:03:02.680Z,102980
2023-02-09T02:04:01.082Z,102980
2023-02-09T02:05:01.050Z,102980
2023-02-09T02:06:04.335Z,102980
2023-02-09T02:07:05.729Z,102970
2023-02-09T02:08:03.876Z,102970
2023-02-09T02:09:04.202Z,102970
2023-02-09T02:10:01.292Z,102970
2023-02-09T02:11:01.032Z,102970
2023-02-09T02:12:00.966Z,102970
2023-02-09T02:13:00.957Z,102970
2023-02-09T02:14:00.676Z,102970
2023-02-09T02:15:00.691Z,102970
2023-02-09T02:16:10.260Z,102970
2023-02-09T02:17:01.704Z,102970
2023-02-09T02:18:03.860Z,102970
2023-02-09T02:19:00.603Z,102960
2023-02-09T02:20:10.555Z,102960
2023-02-09T02:21:10.569Z,102960
2023-02-09T02:22:03.889Z,102960
2023-02-09T02:23:10.553Z,102960
2023-02-09T02:24:10.560Z,102960
2023-02-09T02:25:10.556Z,102960
2023-02-09T02:26:10.560Z,102960
2023-02-09T02:27:03.134Z,102960
2023-02-09T02:28:10.611Z,102960
2023-02-09T02:29:10.545Z,102960
2023-02-09T02:30:10.560Z,102960
2023-02-09T02:31:10.754Z,102960
2023-02-09T02:32:09.767Z,102960
2023-02-09T02:33:10.537Z,102960
2023-02-09T02:34:07.831Z,102960
2023-02-09T02:35:03.733Z,102950
2023-02-09T02:36:10.521Z,102950
2023-02-09T02:37:10.584Z,102950
2023-02-09T02:38:10.553Z,102950
2023-02-09T02:39:05.776Z,102940
2023-02-09T02:40:10.565Z,102940
2023-02-09T02:41:01.703Z,102940
2023-02-09T02:42:04.085Z,102940
2023-02-09T02:43:07.990Z,102940
2023-02-09T02:44:04.601Z,102940
2023-02-09T02:45:06.762Z,102940
2023-02-09T02:46:03.666Z,102940
2023-02-09T02:47:02.156Z,102940
2023-02-09T02:48:10.534Z,102940
2023-02-09T02:49:04.819Z,102930
2023-02-09T02:50:05.024Z,102930
2023-02-09T02:51:00.757Z,102930
2023-02-09T02:52:03.076Z,102930
2023-02-09T02:53:03.338Z,102930
2023-02-09T02:54:03.509Z,102930
2023-02-09T02:55:05.450Z,102930
2023-02-09T02:56:06.653Z,102930
2023-02-09T02:57:04.207Z,102930
2023-02-09T02:58:03.740Z,102930
2023-02-09T02:59:02.279Z,102940
2023-02-09T03:00:05.239Z,102940
2023-02-09T03:01:01.359Z,102930
2023-02-09T03:02:06.741Z,102930
2023-02-09T03:03:04.610Z,102930
2023-02-09T03:04:02.391Z,102930
2023-02-09T03:05:01.918Z,102930
2023-02-09T03:06:02.288Z,102930
2023-02-09T03:07:03.546Z,102920
2023-02-09T03:08:00.622Z,102920
2023-02-09T03:09:00.600Z,102920
2023-02-09T03:10:03.097Z,102920
2023-02-09T03:11:00.669Z,102920
2023-02-09T03:12:08.986Z,102920
2023-02-09T03:13:00.617Z,102920
2023-02-09T03:14:10.575Z,102920
2023-02-09T03:15:07.708Z,102930
2023-02-09T03:16:10.033Z,102930
2023-02-09T03:17:10.548Z,102920
2023-02-09T03:18:09.887Z,102920
2023-02-09T03:19:05.484Z,102930
2023-02-09T03:20:10.527Z,102930
2023-02-09T03:21:08.177Z,102930
2023-02-09T03:22:10.555Z,102930
2023-02-09T03:23:01.635Z,102930
2023-02-09T03:24:06.249Z,102930
2023-02-09T03:25:06.424Z,102930
2023-02-09T03:26:04.616Z,102930
2023-02-09T03:27:08.113Z,102930
2023-02-09T03:28:10.647Z,102930
2023-02-09T03:29:01.152Z,102930
2023-02-09T03:30:01.592Z,102930
2023-02-09T03:31:02.277Z,102930
2023-02-09T03:32:00.616Z,102930
2023-02-09T03:33:02.853Z,102930
2023-02-09T03:34:00.938Z,102930
2023-02-09T03:35:01.072Z,102920
2023-02-09T03:36:01.501Z,102920
2023-02-09T03:37:00.616Z,102930
2023-02-09T03:38:00.638Z,102930
2023-02-09T03:39:00.652Z,102920
2023-02-09T03:40:00.821Z,102920
2023-02-09T03:41:00.627Z,102920
2023-02-09T03:42:00.641Z,102920
2023-02-09T03:43:00.596Z,102920
2023-02-09T03:44:00.604Z,102920
2023-02-09T03:45:00.624Z,102920
2023-02-09T03:46:00.599Z,102920
2023-02-09T03:47:02.040Z,102920
2023-02-09T03:48:00.590Z,102920
2023-02-09T03:49:00.613Z,102930
2023-02-09T03:50:00.663Z,102930
2023-02-09T03:51:00.724Z,102920
2023-02-09T03:52:01.069Z,102920
2023-02-09T03:53:01.296Z,102910
2023-02-09T03:54:00.607Z,102910
2023-02-09T03:55:00.620Z,102910
2023-02-09T03:56:00.927Z,102910
2023-02-09T03:57:00.621Z,102910
2023-02-09T03:58:00.607Z,102910
2023-02-09T03:59:00.616Z,102910
2023-02-09T04:00:00.603Z,102910
2023-02-09T04:01:01.513Z,102900
2023-02-09T04:02:00.632Z,102900
2023-02-09T04:03:00.588Z,102910
2023-02-09T04:04:01.181Z,102910
2023-02-09T04:05:00.612Z,102900
2023-02-09T04:06:00.999Z,102900
2023-02-09T04:07:00.600Z,102900
2023-02-09T04:08:00.673Z,102900
2023-02-09T04:09:01.557Z,102900
2023-02-09T04:10:00.758Z,102900
2023-02-09T04:11:00.631Z,102900
2023-02-09T04:12:00.616Z,102900
2023-02-09T04:13:00.627Z,102900
2023-02-09T04:14:00.647Z,102900
2023-02-09T04:15:01.092Z,102890
2023-02-09T04:16:00.633Z,102890
2023-02-09T04:17:00.698Z,102890
2023-02-09T04:18:00.584Z,102890
2023-02-09T04:19:00.636Z,102890
2023-02-09T04:20:00.619Z,102890
2023-02-09T04:21:00.625Z,102880
2023-02-09T04:22:00.602Z,102880
2023-02-09T04:23:00.621Z,102870
2023-02-09T04:24:00.612Z,102870
2023-02-09T04:25:00.622Z,102870
2023-02-09T04:26:00.617Z,102870
2023-02-09T04:27:00.595Z,102870
2023-02-09T04:28:01.077Z,102870
2023-02-09T04:29:00.631Z,102870
2023-02-09T04:30:00.638Z,102870
2023-02-09T04:31:00.712Z,102870
2023-02-09T04:32:00.723Z,102870
2023-02-09T04:33:00.591Z,102880
2023-02-09T04:34:00.773Z,102880
2023-02-09T04:35:00.604Z,102880
2023-02-09T04:36:01.027Z,102880
2023-02-09T04:37:00.588Z,102880
2023-02-09T04:38:00.596Z,102880
2023-02-09T04:39:00.607Z,102880
2023-02-09T04:40:00.591Z,102880
2023-02-09T04:41:01.236Z,102870
2023-02-09T04:42:00.592Z,102870
2023-02-09T04:43:00.632Z,102870
2023-02-09T04:44:00.617Z,102870
2023-02-09T04:45:00.622Z,102860
2023-02-09T04:46:00.789Z,102860
2023-02-09T04:47:00.614Z,102860
2023-02-09T04:48:00.614Z,102860
2023-02-09T04:49:00.597Z,102860
2023-02-09T04:50:00.630Z,102860
2023-02-09T04:51:00.615Z,102860
2023-02-09T04:52:00.633Z,102860
2023-02-09T04:53:00.622Z,102860
2023-02-09T04:54:00.609Z,102860
2023-02-09T04:55:00.626Z,102860
2023-02-09T04:56:00.674Z,102860
2023-02-09T04:57:00.618Z,102860
2023-02-09T04:58:00.650Z,102860
2023-02-09T04:59:00.618Z,102860
2023-02-09T05:00:00.641Z,102860
2023-02-09T05:01:01.316Z,102870
2023-02-09T05:02:00.601Z,102870
2023-02-09T05:03:00.640Z,102870
2023-02-09T05:04:00.592Z,102870
2023-02-09T05:05:00.623Z,102870
2023-02-09T05:06:01.827Z,102870
2023-02-09T05:07:00.770Z,102880
2023-02-09T05:08:00.626Z,102880
2023-02-09T05:09:00.644Z,102880
2023-02-09T05:10:00.698Z,102880
2023-02-09T05:11:00.632Z,102880
2023-02-09T05:12:00.604Z,102880
2023-02-09T05:13:00.594Z,102890
2023-02-09T05:14:00.624Z,102890
2023-02-09T05:15:00.664Z,102880
2023-02-09T05:16:04.448Z,102880
2023-02-09T05:17:00.754Z,102880
2023-02-09T05:18:00.593Z,102880
2023-02-09T05:19:00.620Z,102880
2023-02-09T05:20:00.746Z,102880
2023-02-09T05:21:00.857Z,102880
2023-02-09T05:22:00.606Z,102880
2023-02-09T05:23:00.871Z,102890
2023-02-09T05:24:00.675Z,102890
2023-02-09T05:25:00.621Z,102890
2023-02-09T05:26:00.850Z,102890
2023-02-09T05:27:00.587Z,102880
2023-02-09T05:28:00.680Z,102880
2023-02-09T05:29:00.650Z,102880
2023-02-09T05:30:00.827Z,102880
2023-02-09T05:31:00.801Z,102890
2023-02-09T05:32:00.720Z,102890
2023-02-09T05:33:00.600Z,102890
2023-02-09T05:34:00.651Z,102890
2023-02-09T05:35:00.626Z,102890
2023-02-09T05:36:00.641Z,102890
2023-02-09T05:37:00.645Z,102900
2023-02-09T05:38:00.605Z,102900
2023-02-09T05:39:00.639Z,102900
2023-02-09T05:40:00.665Z,102900
2023-02-09T05:41:05.047Z,102890
2023-02-09T05:42:00.637Z,102890
2023-02-09T05:43:00.632Z,102900
2023-02-09T05:44:00.617Z,102900
2023-02-09T05:45:00.653Z,102900
2023-02-09T05:46:00.645Z,102900
2023-02-09T05:47:00.595Z,102900
2023-02-09T05:48:00.633Z,102900
2023-02-09T05:49:00.638Z,102900
2023-02-09T05:50:00.652Z,102900
2023-02-09T05:51:00.642Z,102900
2023-02-09T05:52:00.605Z,102900
2023-02-09T05:53:00.662Z,102910
2023-02-09T05:54:00.590Z,102910
2023-02-09T05:55:00.623Z,102910
2023-02-09T05:56:00.598Z,102910
2023-02-09T05:57:00.949Z,102910
2023-02-09T05:58:00.668Z,102910
2023-02-09T05:59:01.732Z,102910
2023-02-09T06:00:00.870Z,102910
2023-02-09T06:01:00.616Z,102900
2023-02-09T06:02:01.007Z,102900
2023-02-09T06:03:00.934Z,102900
2023-02-09T06:04:00.607Z,102900
2023-02-09T06:05:00.615Z,102900
2023-02-09T06:06:00.637Z,102900
2023-02-09T06:07:00.617Z,102900
2023-02-09T06:08:00.616Z,102900
2023-02-09T06:09:00.593Z,102890
2023-02-09T06:10:00.680Z,102890
2023-02-09T06:11:00.617Z,102890
2023-02-09T06:12:00.605Z,102890
2023-02-09T06:13:00.628Z,102890
2023-02-09T06:14:00.630Z,102890
2023-02-09T06:15:00.618Z,102890
2023-02-09T06:16:00.718Z,102890
2023-02-09T06:17:00.637Z,102890
2023-02-09T06:18:00.612Z,102890
2023-02-09T06:19:00.626Z,102870
2023-02-09T06:20:00.744Z,102870
2023-02-09T06:21:00.583Z,102870
2023-02-09T06:22:00.626Z,102870
2023-02-09T06:23:00.616Z,102870
2023-02-09T06:24:00.610Z,102870
2023-02-09T06:25:00.643Z,102870
2023-02-09T06:26:04.324Z,102870
2023-02-09T06:27:00.649Z,102880
2023-02-09T06:28:00.735Z,102880
2023-02-09T06:29:00.935Z,102880
2023-02-09T06:30:00.622Z,102880
2023-02-09T06:31:00.861Z,102890
2023-02-09T06:32:00.734Z,102890
2023-02-09T06:33:00.649Z,102900
2023-02-09T06:34:00.872Z,102900
2023-02-09T06:35:00.615Z,102900
2023-02-09T06:36:00.909Z,102900
2023-02-09T06:37:00.673Z,102900
2023-02-09T06:38:00.679Z,102900
2023-02-09T06:39:00.662Z,102910
2023-02-09T06:40:00.595Z,102910
2023-02-09T06:41:00.622Z,102910
2023-02-09T06:42:00.615Z,102910
2023-02-09T06:43:00.618Z,102910
2023-02-09T06:44:00.705Z,102910
2023-02-09T06:45:00.647Z,102910
2023-02-09T06:46:04.757Z,102910
2023-02-09T06:47:00.621Z,102910
2023-02-09T06:48:00.613Z,102910
2023-02-09T06:49:00.619Z,102910
2023-02-09T06:50:01.146Z,102910
2023-02-09T06:51:00.656Z,102910
2023-02-09T06:52:00.610Z,102910
2023-02-09T06:53:00.900Z,102910
2023-02-09T06:54:00.639Z,102910
2023-02-09T06:55:00.594Z,102920
2023-02-09T06:56:00.635Z,102920
2023-02-09T06:57:00.633Z,102930
2023-02-09T06:58:00.673Z,102930
2023-02-09T06:59:00.595Z,102930
2023-02-09T07:00:00.883Z,102930
2023-02-09T07:01:01.576Z,102930
2023-02-09T07:02:00.641Z,102930
2023-02-09T07:03:00.732Z,102930
2023-02-09T07:04:00.600Z,102930
2023-02-09T07:05:00.633Z,102930
2023-02-09T07:06:03.146Z,102930
2023-02-09T07:07:00.628Z,102940
2023-02-09T07:08:00.616Z,102940
2023-02-09T07:09:00.662Z,102940
2023-02-09T07:10:00.833Z,102940
2023-02-09T07:11:01.762Z,102950
2023-02-09T07:12:00.638Z,102950
2023-02-09T07:13:00.600Z,102950
2023-02-09T07:14:00.621Z,102950
2023-02-09T07:15:00.628Z,102940
2023-02-09T07:16:01.656Z,102940
2023-02-09T07:17:00.632Z,102940
2023-02-09T07:18:00.618Z,102940
2023-02-09T07:19:00.600Z,102950
2023-02-09T07:20:00.800Z,102950
2023-02-09T07:21:02.135Z,102950
2023-02-09T07:22:00.587Z,102950
2023-02-09T07:23:00.591Z,102960
2023-02-09T07:24:00.635Z,102960
2023-02-09T07:25:00.635Z,102960
2023-02-09T07:26:01.380Z,102960
2023-02-09T07:27:00.616Z,102960
2023-02-09T07:28:00.670Z,102960
2023-02-09T07:29:00.935Z,102960
2023-02-09T07:30:01.306Z,102960
2023-02-09T07:31:02.415Z,102950
2023-02-09T07:32:00.633Z,102950
2023-02-09T07:33:00.604Z,102950
2023-02-09T07:34:00.652Z,102950
2023-02-09T07:35:00.678Z,102950
2023-02-09T07:36:02.523Z,102950
2023-02-09T07:37:00.605Z,102950
2023-02-09T07:38:00.639Z,102950
2023-02-09T07:39:00.633Z,102950
2023-02-09T07:40:00.722Z,102950
2023-02-09T07:41:01.522Z,102950
2023-02-09T07:42:00.638Z,102950
2023-02-09T07:43:00.644Z,102950
2023-02-09T07:44:00.754Z,102950
2023-02-09T07:45:00.602Z,102940
2023-02-09T07:46:01.392Z,102940
2023-02-09T07:47:00.625Z,102950
2023-02-09T07:48:00.625Z,102950
2023-02-09T07:49:01.509Z,102950
2023-02-09T07:50:00.601Z,102950
2023-02-09T07:51:00.908Z,102960
2023-02-09T07:52:00.724Z,102960
2023-02-09T07:53:00.648Z,102960
2023-02-09T07:54:00.651Z,102960
2023-02-09T07:55:00.703Z,102960
2023-02-09T07:56:00.599Z,102960
2023-02-09T07:57:00.601Z,102960
2023-02-09T07:58:00.629Z,102960
2023-02-09T07:59:00.691Z,102970
2023-02-09T08:00:00.670Z,102970
2023-02-09T08:01:03.268Z,102970
2023-02-09T08:02:00.676Z,102970
2023-02-09T08:03:00.690Z,102970
2023-02-09T08:04:00.617Z,102970
2023-02-09T08:05:01.368Z,102970
2023-02-09T08:06:03.090Z,102970
2023-02-09T08:07:00.615Z,102970
2023-02-09T08:08:00.658Z,102970
2023-02-09T08:09:00.640Z,102970
2023-02-09T08:10:00.616Z,102970
2023-02-09T08:11:01.299Z,102960
2023-02-09T08:12:02.809Z,102960
2023-02-09T08:13:00.689Z,102970
2023-02-09T08:14:03.490Z,102970
2023-02-09T08:15:00.597Z,102970
2023-02-09T08:16:02.849Z,102970
2023-02-09T08:17:03.415Z,102970
2023-02-09T08:18:09.902Z,102970
2023-02-09T08:19:02.689Z,102970
2023-02-09T08:20:03.377Z,102970
2023-02-09T08:21:03.188Z,102960
2023-02-09T08:22:00.574Z,102960
2023-02-09T08:23:03.840Z,102960
2023-02-09T08:24:01.677Z,102960
2023-02-09T08:25:01.685Z,102960
2023-02-09T08:26:01.960Z,102960
2023-02-09T08:27:00.652Z,102950
2023-02-09T08:28:01.402Z,102950
2023-02-09T08:29:01.089Z,102960
2023-02-09T08:30:01.694Z,102960
2023-02-09T08:31:00.661Z,102950
2023-02-09T08:32:00.720Z,102950
2023-02-09T08:33:00.792Z,102950
2023-02-09T08:34:00.647Z,102950
2023-02-09T08:35:00.590Z,102950
2023-02-09T08:36:00.579Z,102950
2023-02-09T08:37:00.585Z,102950
2023-02-09T08:38:01.552Z,102950
2023-02-09T08:39:00.734Z,102940
2023-02-09T08:40:00.598Z,102940
2023-02-09T08:41:01.575Z,102940
2023-02-09T08:42:00.624Z,102940
2023-02-09T08:43:00.578Z,102940
2023-02-09T08:44:01.326Z,102940
2023-02-09T08:45:00.643Z,102940
2023-02-09T08:46:01.580Z,102940
2023-02-09T08:47:00.788Z,102950
2023-02-09T08:48:00.596Z,102950
2023-02-09T08:49:00.597Z,102950
2023-02-09T08:50:00.706Z,102950
2023-02-09T08:51:00.789Z,102930
2023-02-09T08:52:00.574Z,102930
2023-02-09T08:53:00.579Z,102940
2023-02-09T08:54:00.590Z,102940
2023-02-09T08:55:00.846Z,102920
2023-02-09T08:56:00.677Z,102920
2023-02-09T08:57:01.118Z,102920
2023-02-09T08:58:00.592Z,102920
2023-02-09T08:59:00.612Z,102930
2023-02-09T09:00:00.645Z,102930
2023-02-09T09:01:00.780Z,102920
2023-02-09T09:02:00.617Z,102920
2023-02-09T09:03:03.065Z,102930
2023-02-09T09:04:00.633Z,102930
2023-02-09T09:05:00.726Z,102930
2023-02-09T09:06:02.030Z,102930
2023-02-09T09:07:00.571Z,102930
2023-02-09T09:08:00.906Z,102930
2023-02-09T09:09:00.655Z,102930
2023-02-09T09:10:00.602Z,102930
2023-02-09T09:11:00.739Z,102930
2023-02-09T09:12:00.592Z,102930
2023-02-09T09:13:00.623Z,102920
2023-02-09T09:14:00.589Z,102920
2023-02-09T09:15:00.637Z,102930
2023-02-09T09:16:00.681Z,102930
2023-02-09T09:17:00.760Z,102940
2023-02-09T09:18:00.599Z,102940
2023-02-09T09:19:00.639Z,102940
2023-02-09T09:20:00.598Z,102940
2023-02-09T09:21:00.559Z,102940
2023-02-09T09:22:00.604Z,102940
2023-02-09T09:23:00.580Z,102940
2023-02-09T09:24:00.603Z,102940
2023-02-09T09:25:00.677Z,102950
2023-02-09T09:26:01.056Z,102950
2023-02-09T09:27:00.609Z,102960
2023-02-09T09:28:00.638Z,102960
2023-02-09T09:29:00.595Z,102950
2023-02-09T09:30:01.562Z,102950
2023-02-09T09:31:05.795Z,102940
2023-02-09T09:32:00.872Z,102940
2023-02-09T09:33:00.687Z,102930
2023-02-09T09:34:00.604Z,102930
2023-02-09T09:35:00.586Z,102940
2023-02-09T09:36:01.196Z,102940
2023-02-09T09:37:00.618Z,102940
2023-02-09T09:38:00.569Z,102940
2023-02-09T09:39:00.624Z,102940
2023-02-09T09:40:00.564Z,102940
2023-02-09T09:41:01.755Z,102940
2023-02-09T09:42:00.813Z,102940
2023-02-09T09:43:03.348Z,102940
2023-02-09T09:44:01.657Z,102940
2023-02-09T09:45:02.040Z,102950
2023-02-09T09:46:01.708Z,102950
2023-02-09T09:47:05.774Z,102930
2023-02-09T09:48:00.701Z,102930
2023-02-09T09:49:00.900Z,102930
2023-02-09T09:50:00.842Z,102930
2023-02-09T09:51:05.145Z,102930
2023-02-09T09:52:03.857Z,102930
2023-02-09T09:53:03.908Z,102940
2023-02-09T09:54:02.028Z,102940
2023-02-09T09:55:02.779Z,102950
2023-02-09T09:56:04.076Z,102950
2023-02-09T09:57:00.904Z,102960
2023-02-09T09:58:02.167Z,102960
2023-02-09T09:59:00.828Z,102960
2023-02-09T10:00:01.472Z,102960
2023-02-09T10:01:00.796Z,102950
2023-02-09T10:02:02.240Z,102950
2023-02-09T10:03:01.116Z,102950
2023-02-09T10:04:05.548Z,102950
2023-02-09T10:05:10.170Z,102960
2023-02-09T10:06:08.679Z,102960
2023-02-09T10:07:03.903Z,102970
2023-02-09T10:08:04.201Z,102970
2023-02-09T10:09:02.974Z,102970
2023-02-09T10:10:02.945Z,102970
2023-02-09T10:11:03.189Z,102970
2023-02-09T10:12:03.815Z,102970
2023-02-09T10:13:02.276Z,102970
2023-02-09T10:14:00.593Z,102970
2023-02-09T10:15:10.513Z,102970
2023-02-09T10:16:01.171Z,102970
2023-02-09T10:17:00.651Z,102980
2023-02-09T10:18:00.609Z,102980
2023-02-09T10:19:01.363Z,102980
2023-02-09T10:20:04.898Z,102980
2023-02-09T10:21:09.967Z,102970
2023-02-09T10:22:00.628Z,102970
2023-02-09T10:23:00.582Z,102960
2023-02-09T10:24:00.567Z,102960
2023-02-09T10:25:01.708Z,102960
2023-02-09T10:26:10.513Z,102960
2023-02-09T10:27:03.838Z,102960
2023-02-09T10:29:10.326Z,102950
2023-02-09T10:30:10.359Z,102950
2023-02-09T10:31:01.937Z,102960
2023-02-09T10:32:01.430Z,102960
2023-02-09T10:33:01.036Z,102960
2023-02-09T10:34:03.689Z,102960
2023-02-09T10:35:00.396Z,102970
2023-02-09T10:36:00.381Z,102970
2023-02-09T10:37:10.322Z,102970
2023-02-09T10:38:01.243Z,102970
2023-02-09T10:39:10.316Z,102960
2023-02-09T10:40:06.545Z,102960
2023-02-09T10:41:00.513Z,102960
2023-02-09T10:42:10.337Z,102960
2023-02-09T10:43:02.676Z,102980
2023-02-09T10:44:04.608Z,102980
2023-02-09T10:45:10.349Z,102980
2023-02-09T10:46:02.273Z,102980
2023-02-09T10:47:10.361Z,102980
2023-02-09T10:48:07.069Z,102980
2023-02-09T10:49:00.450Z,102990
2023-02-09T10:50:10.316Z,102990
2023-02-09T10:51:10.319Z,102990
2023-02-09T10:52:10.299Z,102990
2023-02-09T10:53:10.297Z,102980
2023-02-09T10:54:02.532Z,102980
2023-02-09T10:55:03.775Z,102980
2023-02-09T10:56:00.358Z,102980
2023-02-09T10:57:02.078Z,102970
2023-02-09T10:58:07.737Z,102970
2023-02-09T10:59:10.319Z,102970
2023-02-09T11:00:10.321Z,102970
2023-02-09T11:01:05.354Z,102970
2023-02-09T11:02:00.821Z,102970
2023-02-09T11:03:00.431Z,102970
2023-02-09T11:04:01.643Z,102970
2023-02-09T11:05:00.860Z,102970
2023-02-09T11:06:00.345Z,102970
2023-02-09T11:07:02.600Z,102980
2023-02-09T11:08:10.308Z,102980
2023-02-09T11:09:05.722Z,102970
2023-02-09T11:10:02.016Z,102970
2023-02-09T11:11:04.116Z,102960
2023-02-09T11:12:00.459Z,102960
2023-02-09T11:13:01.117Z,102970
2023-02-09T11:14:01.159Z,102970
2023-02-09T11:15:00.381Z,102970
2023-02-09T11:16:10.353Z,102970
2023-02-09T11:17:10.303Z,102960
2023-02-09T11:18:04.607Z,102960
2023-02-09T11:19:11.348Z,102960
2023-02-09T11:20:01.362Z,102960
2023-02-09T11:21:10.311Z,102970
2023-02-09T11:22:00.365Z,102970
2023-02-09T11:23:05.857Z,102980
2023-02-09T11:24:05.731Z,102980
2023-02-09T11:25:01.353Z,102980
2023-02-09T11:26:06.365Z,102980
2023-02-09T11:27:05.419Z,102990
2023-02-09T11:28:03.736Z,102990
2023-02-09T11:29:10.308Z,102990
2023-02-09T11:30:00.368Z,102990
2023-02-09T11:31:00.477Z,102980
2023-02-09T11:32:03.836Z,102980
2023-02-09T11:33:05.765Z,102980
2023-02-09T11:34:10.304Z,102980
2023-02-09T11:35:00.384Z,102980
2023-02-09T11:36:03.674Z,102980
2023-02-09T11:37:09.346Z,102980
2023-02-09T11:38:00.364Z,102980
2023-02-09T11:39:04.094Z,102980
2023-02-09T11:40:04.512Z,102980
2023-02-09T11:41:02.344Z,102970
2023-02-09T11:42:03.865Z,102970
2023-02-09T11:43:07.057Z,102980
2023-02-09T11:44:01.457Z,102980
2023-02-09T11:45:08.637Z,102980
2023-02-09T11:46:04.198Z,102980
2023-02-09T11:47:04.044Z,102980
2023-02-09T11:48:10.318Z,102980
2023-02-09T11:49:04.786Z,102990
2023-02-09T11:50:03.411Z,102990
2023-02-09T11:51:01.394Z,102980
2023-02-09T11:52:02.562Z,102980
2023-02-09T11:53:04.851Z,102980
2023-02-09T11:54:05.192Z,102980
2023-02-09T11:55:05.060Z,102980
2023-02-09T11:56:02.477Z,102980
2023-02-09T11:57:01.822Z,102990
2023-02-09T11:58:07.648Z,102990
2023-02-09T11:59:10.308Z,102980
2023-02-09T12:00:02.563Z,102980
2023-02-09T12:01:15.177Z,102980
2023-02-09T12:02:08.138Z,102980
2023-02-09T12:03:06.333Z,102970
2023-02-09T12:04:04.166Z,102970
2023-02-09T12:05:01.415Z,102970
2023-02-09T12:06:00.908Z,102970
2023-02-09T12:07:02.368Z,102960
2023-02-09T12:08:10.347Z,102960
2023-02-09T12:09:06.996Z,102970
2023-02-09T12:10:10.359Z,102970
2023-02-09T12:11:08.509Z,102960
2023-02-09T12:12:04.323Z,102960
2023-02-09T12:13:05.012Z,102960
2023-02-09T12:14:10.342Z,102960
2023-02-09T12:15:02.845Z,102960
2023-02-09T12:16:03.301Z,102960
2023-02-09T12:17:06.476Z,102960
2023-02-09T12:18:04.926Z,102960
2023-02-09T12:19:01.851Z,102960
2023-02-09T12:20:01.164Z,102960
2023-02-09T12:21:03.230Z,102960
2023-02-09T12:22:10.334Z,102960
2023-02-09T12:23:00.377Z,102960
2023-02-09T12:24:00.723Z,102960
2023-02-09T12:25:10.319Z,102960
2023-02-09T12:26:01.288Z,102960
2023-02-09T12:27:00.400Z,102970
2023-02-09T12:28:03.642Z,102970
2023-02-09T12:29:10.304Z,102960